sensor_id;sensor_type;location;lat;lon;timestamp;P1;durP1;ratioP1;P2;durP2;ratioP2
2119;SDS011;1066;52.540;13.420;2022-07-21T00:00:58;9.40;;;8.60;;
2119;SDS011;1066;52.540;13.420;2022-07-21T00:03:23;12.77;;;9.03;;
2119;SDS011;1066;52.540;13.420;2022-07-21T00:05:48;9.00;;;8.30;;
2119;SDS011;1066;52.540;13.420;2022-07-21T00:08:14;9.40;;;8.60;;
2119;SDS011;1066;52.540;13.420;2022-07-21T00:10:39;9.13;;;8.40;;
2119;SDS011;1066;52.540;13.420;2022-07-21T00:13:04;10.77;;;8.90;;
2119;SDS011;1066;52.540;13.420;2022-07-21T00:15:30;10.17;;;9.27;;
2119;SDS011;1066;52.540;13.420;2022-07-21T00:17:56;8.83;;;8.13;;
2119;SDS011;1066;52.540;13.420;2022-07-21T00:20:21;9.37;;;8.57;;
2119;SDS011;1066;52.540;13.420;2022-07-21T00:22:46;9.30;;;8.50;;
2119;SDS011;1066;52.540;13.420;2022-07-21T00:25:12;9.67;;;8.80;;
2119;SDS011;1066;52.540;13.420;2022-07-21T00:27:37;9.10;;;8.40;;
2119;SDS011;1066;52.540;13.420;2022-07-21T00:30:03;9.23;;;8.20;;
2119;SDS011;1066;52.540;13.420;2022-07-21T00:32:29;8.93;;;8.23;;
2119;SDS011;1066;52.540;13.420;2022-07-21T00:34:54;7.87;;;7.23;;
2119;SDS011;1066;52.540;13.420;2022-07-21T00:37:19;8.30;;;7.50;;
2119;SDS011;1066;52.540;13.420;2022-07-21T00:39:44;8.90;;;8.10;;
2119;SDS011;1066;52.540;13.420;2022-07-21T00:42:19;9.00;;;8.30;;
2119;SDS011;1066;52.540;13.420;2022-07-21T00:44:45;9.47;;;8.57;;
2119;SDS011;1066;52.540;13.420;2022-07-21T00:47:10;9.27;;;8.50;;
2119;SDS011;1066;52.540;13.420;2022-07-21T00:49:35;10.07;;;9.07;;
2119;SDS011;1066;52.540;13.420;2022-07-21T00:52:00;9.23;;;8.20;;
2119;SDS011;1066;52.540;13.420;2022-07-21T00:54:26;9.43;;;8.50;;
2119;SDS011;1066;52.540;13.420;2022-07-21T00:56:51;9.47;;;8.67;;
2119;SDS011;1066;52.540;13.420;2022-07-21T00:59:16;8.03;;;7.43;;
2119;SDS011;1066;52.540;13.420;2022-07-21T01:01:41;9.03;;;8.03;;
2119;SDS011;1066;52.540;13.420;2022-07-21T01:04:07;7.93;;;7.30;;
2119;SDS011;1066;52.540;13.420;2022-07-21T01:06:32;8.57;;;7.77;;
2119;SDS011;1066;52.540;13.420;2022-07-21T01:08:57;8.50;;;7.77;;
2119;SDS011;1066;52.540;13.420;2022-07-21T01:11:23;11.90;;;10.70;;
2119;SDS011;1066;52.540;13.420;2022-07-21T01:13:49;10.20;;;9.20;;
2119;SDS011;1066;52.540;13.420;2022-07-21T01:16:14;13.63;;;9.13;;
2119;SDS011;1066;52.540;13.420;2022-07-21T01:18:39;9.27;;;8.47;;
2119;SDS011;1066;52.540;13.420;2022-07-21T01:21:50;9.17;;;8.30;;
2119;SDS011;1066;52.540;13.420;2022-07-21T01:23:50;9.23;;;7.60;;
2119;SDS011;1066;52.540;13.420;2022-07-21T01:26:15;8.07;;;7.27;;
2119;SDS011;1066;52.540;13.420;2022-07-21T01:28:41;9.20;;;8.03;;
2119;SDS011;1066;52.540;13.420;2022-07-21T01:31:06;8.73;;;7.93;;
2119;SDS011;1066;52.540;13.420;2022-07-21T01:33:31;8.27;;;7.47;;
2119;SDS011;1066;52.540;13.420;2022-07-21T01:35:56;7.87;;;7.17;;
2119;SDS011;1066;52.540;13.420;2022-07-21T01:38:22;9.37;;;8.50;;
2119;SDS011;1066;52.540;13.420;2022-07-21T01:41:05;7.90;;;7.20;;
2119;SDS011;1066;52.540;13.420;2022-07-21T01:43:49;7.60;;;6.87;;
2119;SDS011;1066;52.540;13.420;2022-07-21T01:46:14;8.30;;;7.60;;
2119;SDS011;1066;52.540;13.420;2022-07-21T01:48:40;8.77;;;7.60;;
2119;SDS011;1066;52.540;13.420;2022-07-21T01:51:06;8.30;;;7.60;;
2119;SDS011;1066;52.540;13.420;2022-07-21T01:53:31;8.53;;;7.73;;
2119;SDS011;1066;52.540;13.420;2022-07-21T01:55:56;9.27;;;7.30;;
2119;SDS011;1066;52.540;13.420;2022-07-21T01:58:21;8.03;;;7.40;;
2119;SDS011;1066;52.540;13.420;2022-07-21T02:00:46;7.73;;;6.93;;
2119;SDS011;1066;52.540;13.420;2022-07-21T02:03:12;8.87;;;7.83;;
2119;SDS011;1066;52.540;13.420;2022-07-21T02:05:37;9.30;;;7.67;;
2119;SDS011;1066;52.540;13.420;2022-07-21T02:08:02;10.30;;;8.63;;
2119;SDS011;1066;52.540;13.420;2022-07-21T02:10:27;10.27;;;8.40;;
2119;SDS011;1066;52.540;13.420;2022-07-21T02:12:53;9.13;;;8.20;;
2119;SDS011;1066;52.540;13.420;2022-07-21T02:15:18;8.33;;;7.67;;
2119;SDS011;1066;52.540;13.420;2022-07-21T02:17:43;7.50;;;6.80;;
2119;SDS011;1066;52.540;13.420;2022-07-21T02:20:08;8.60;;;7.40;;
2119;SDS011;1066;52.540;13.420;2022-07-21T02:22:34;8.43;;;7.37;;
2119;SDS011;1066;52.540;13.420;2022-07-21T02:24:59;9.07;;;7.90;;
2119;SDS011;1066;52.540;13.420;2022-07-21T02:27:24;9.63;;;7.90;;
2119;SDS011;1066;52.540;13.420;2022-07-21T02:29:49;8.17;;;7.47;;
2119;SDS011;1066;52.540;13.420;2022-07-21T02:32:15;9.10;;;8.17;;
2119;SDS011;1066;52.540;13.420;2022-07-21T02:34:40;7.90;;;7.20;;
2119;SDS011;1066;52.540;13.420;2022-07-21T02:37:05;8.43;;;7.63;;
2119;SDS011;1066;52.540;13.420;2022-07-21T02:39:30;9.53;;;7.87;;
2119;SDS011;1066;52.540;13.420;2022-07-21T02:41:56;8.33;;;7.63;;
2119;SDS011;1066;52.540;13.420;2022-07-21T02:44:21;8.20;;;7.50;;
2119;SDS011;1066;52.540;13.420;2022-07-21T02:46:46;8.80;;;7.97;;
2119;SDS011;1066;52.540;13.420;2022-07-21T02:49:11;8.40;;;7.60;;
2119;SDS011;1066;52.540;13.420;2022-07-21T02:51:36;7.83;;;7.10;;
2119;SDS011;1066;52.540;13.420;2022-07-21T02:54:02;9.70;;;8.20;;
2119;SDS011;1066;52.540;13.420;2022-07-21T02:56:27;10.90;;;7.87;;
2119;SDS011;1066;52.540;13.420;2022-07-21T02:58:52;7.47;;;6.87;;
2119;SDS011;1066;52.540;13.420;2022-07-21T03:01:17;9.00;;;8.10;;
2119;SDS011;1066;52.540;13.420;2022-07-21T03:03:44;8.77;;;7.87;;
2119;SDS011;1066;52.540;13.420;2022-07-21T03:06:09;8.20;;;7.50;;
2119;SDS011;1066;52.540;13.420;2022-07-21T03:08:34;11.57;;;7.97;;
2119;SDS011;1066;52.540;13.420;2022-07-21T03:10:59;7.23;;;6.63;;
2119;SDS011;1066;52.540;13.420;2022-07-21T03:13:25;8.03;;;7.43;;
2119;SDS011;1066;52.540;13.420;2022-07-21T03:15:50;8.00;;;6.90;;
2119;SDS011;1066;52.540;13.420;2022-07-21T03:18:15;7.43;;;6.83;;
2119;SDS011;1066;52.540;13.420;2022-07-21T03:20:43;8.70;;;7.90;;
2119;SDS011;1066;52.540;13.420;2022-07-21T03:23:11;8.40;;;7.20;;
2119;SDS011;1066;52.540;13.420;2022-07-21T03:25:37;7.67;;;6.97;;
2119;SDS011;1066;52.540;13.420;2022-07-21T03:28:03;8.40;;;7.60;;
2119;SDS011;1066;52.540;13.420;2022-07-21T03:30:28;7.93;;;7.23;;
2119;SDS011;1066;52.540;13.420;2022-07-21T03:32:54;7.50;;;6.80;;
2119;SDS011;1066;52.540;13.420;2022-07-21T03:35:20;8.33;;;7.47;;
2119;SDS011;1066;52.540;13.420;2022-07-21T03:37:46;8.40;;;7.63;;
2119;SDS011;1066;52.540;13.420;2022-07-21T03:40:12;7.43;;;6.87;;
2119;SDS011;1066;52.540;13.420;2022-07-21T03:42:38;7.77;;;7.07;;
2119;SDS011;1066;52.540;13.420;2022-07-21T03:45:04;7.77;;;6.37;;
2119;SDS011;1066;52.540;13.420;2022-07-21T03:47:29;8.13;;;7.33;;
2119;SDS011;1066;52.540;13.420;2022-07-21T03:49:54;10.60;;;6.53;;
2119;SDS011;1066;52.540;13.420;2022-07-21T03:52:19;10.60;;;7.33;;
2119;SDS011;1066;52.540;13.420;2022-07-21T03:54:45;7.50;;;6.80;;
2119;SDS011;1066;52.540;13.420;2022-07-21T03:57:10;7.67;;;7.00;;
2119;SDS011;1066;52.540;13.420;2022-07-21T03:59:35;9.40;;;8.50;;
2119;SDS011;1066;52.540;13.420;2022-07-21T04:02:01;7.60;;;6.90;;
2119;SDS011;1066;52.540;13.420;2022-07-21T04:04:26;8.43;;;7.53;;
2119;SDS011;1066;52.540;13.420;2022-07-21T04:06:51;9.73;;;8.27;;
2119;SDS011;1066;52.540;13.420;2022-07-21T04:09:16;9.03;;;6.60;;
2119;SDS011;1066;52.540;13.420;2022-07-21T04:11:42;10.03;;;7.20;;
2119;SDS011;1066;52.540;13.420;2022-07-21T04:14:07;7.57;;;6.77;;
2119;SDS011;1066;52.540;13.420;2022-07-21T04:16:33;11.73;;;7.67;;
2119;SDS011;1066;52.540;13.420;2022-07-21T04:18:58;11.67;;;8.03;;
2119;SDS011;1066;52.540;13.420;2022-07-21T04:21:24;9.63;;;7.27;;
2119;SDS011;1066;52.540;13.420;2022-07-21T04:23:49;9.33;;;7.53;;
2119;SDS011;1066;52.540;13.420;2022-07-21T04:26:14;7.63;;;6.83;;
2119;SDS011;1066;52.540;13.420;2022-07-21T04:28:40;8.43;;;6.10;;
2119;SDS011;1066;52.540;13.420;2022-07-21T04:31:05;9.70;;;6.07;;
2119;SDS011;1066;52.540;13.420;2022-07-21T04:33:31;10.23;;;7.47;;
2119;SDS011;1066;52.540;13.420;2022-07-21T04:35:56;9.03;;;8.10;;
2119;SDS011;1066;52.540;13.420;2022-07-21T04:38:21;7.47;;;6.77;;
2119;SDS011;1066;52.540;13.420;2022-07-21T04:40:46;6.67;;;6.07;;
2119;SDS011;1066;52.540;13.420;2022-07-21T04:43:11;9.00;;;8.20;;
2119;SDS011;1066;52.540;13.420;2022-07-21T04:45:37;8.10;;;6.60;;
2119;SDS011;1066;52.540;13.420;2022-07-21T04:48:02;15.37;;;7.40;;
2119;SDS011;1066;52.540;13.420;2022-07-21T04:50:28;8.83;;;7.60;;
2119;SDS011;1066;52.540;13.420;2022-07-21T04:52:53;7.83;;;7.10;;
2119;SDS011;1066;52.540;13.420;2022-07-21T04:55:19;31.67;;;28.47;;
2119;SDS011;1066;52.540;13.420;2022-07-21T04:57:46;15.77;;;11.27;;
2119;SDS011;1066;52.540;13.420;2022-07-21T05:00:13;12.10;;;8.60;;
2119;SDS011;1066;52.540;13.420;2022-07-21T05:02:39;22.30;;;19.27;;
2119;SDS011;1066;52.540;13.420;2022-07-21T05:05:05;27.53;;;24.10;;
2119;SDS011;1066;52.540;13.420;2022-07-21T05:07:30;23.93;;;20.57;;
2119;SDS011;1066;52.540;13.420;2022-07-21T05:09:56;25.07;;;22.43;;
2119;SDS011;1066;52.540;13.420;2022-07-21T05:12:23;28.47;;;25.57;;
2119;SDS011;1066;52.540;13.420;2022-07-21T05:14:48;30.13;;;27.10;;
2119;SDS011;1066;52.540;13.420;2022-07-21T05:17:14;33.47;;;30.13;;
2119;SDS011;1066;52.540;13.420;2022-07-21T05:19:39;29.23;;;26.33;;
2119;SDS011;1066;52.540;13.420;2022-07-21T05:22:04;26.87;;;24.00;;
2119;SDS011;1066;52.540;13.420;2022-07-21T05:24:29;29.27;;;26.53;;
2119;SDS011;1066;52.540;13.420;2022-07-21T05:26:54;25.73;;;22.87;;
2119;SDS011;1066;52.540;13.420;2022-07-21T05:29:20;24.77;;;22.33;;
2119;SDS011;1066;52.540;13.420;2022-07-21T05:31:45;28.43;;;25.43;;
2119;SDS011;1066;52.540;13.420;2022-07-21T05:34:10;26.37;;;23.87;;
2119;SDS011;1066;52.540;13.420;2022-07-21T05:36:35;26.40;;;23.73;;
2119;SDS011;1066;52.540;13.420;2022-07-21T05:39:01;26.30;;;23.70;;
2119;SDS011;1066;52.540;13.420;2022-07-21T05:41:26;27.90;;;24.97;;
2119;SDS011;1066;52.540;13.420;2022-07-21T05:43:51;23.63;;;21.53;;
2119;SDS011;1066;52.540;13.420;2022-07-21T05:46:16;26.83;;;24.50;;
2119;SDS011;1066;52.540;13.420;2022-07-21T05:48:42;27.50;;;24.90;;
2119;SDS011;1066;52.540;13.420;2022-07-21T05:51:07;26.53;;;24.20;;
2119;SDS011;1066;52.540;13.420;2022-07-21T05:53:32;25.10;;;22.60;;
2119;SDS011;1066;52.540;13.420;2022-07-21T05:55:57;25.17;;;22.57;;
2119;SDS011;1066;52.540;13.420;2022-07-21T05:58:23;23.23;;;21.07;;
2119;SDS011;1066;52.540;13.420;2022-07-21T06:00:49;23.17;;;21.23;;
2119;SDS011;1066;52.540;13.420;2022-07-21T06:03:33;23.00;;;21.00;;
2119;SDS011;1066;52.540;13.420;2022-07-21T06:05:58;24.03;;;21.70;;
2119;SDS011;1066;52.540;13.420;2022-07-21T06:08:23;20.97;;;19.07;;
2119;SDS011;1066;52.540;13.420;2022-07-21T06:10:48;25.93;;;23.37;;
2119;SDS011;1066;52.540;13.420;2022-07-21T06:13:14;20.90;;;19.00;;
2119;SDS011;1066;52.540;13.420;2022-07-21T06:15:39;21.37;;;19.47;;
2119;SDS011;1066;52.540;13.420;2022-07-21T06:18:04;24.23;;;22.03;;
2119;SDS011;1066;52.540;13.420;2022-07-21T06:20:29;21.33;;;19.33;;
2119;SDS011;1066;52.540;13.420;2022-07-21T06:22:55;22.57;;;20.20;;
2119;SDS011;1066;52.540;13.420;2022-07-21T06:25:20;24.90;;;22.40;;
2119;SDS011;1066;52.540;13.420;2022-07-21T06:27:45;22.53;;;20.10;;
2119;SDS011;1066;52.540;13.420;2022-07-21T06:30:11;21.67;;;19.47;;
2119;SDS011;1066;52.540;13.420;2022-07-21T06:32:36;21.90;;;19.90;;
2119;SDS011;1066;52.540;13.420;2022-07-21T06:35:01;30.50;;;27.50;;
2119;SDS011;1066;52.540;13.420;2022-07-21T06:37:27;34.37;;;30.90;;
2119;SDS011;1066;52.540;13.420;2022-07-21T06:39:52;43.70;;;39.10;;
2119;SDS011;1066;52.540;13.420;2022-07-21T06:42:17;33.67;;;30.37;;
2119;SDS011;1066;52.540;13.420;2022-07-21T06:44:43;30.70;;;27.80;;
2119;SDS011;1066;52.540;13.420;2022-07-21T06:47:08;34.60;;;31.00;;
2119;SDS011;1066;52.540;13.420;2022-07-21T06:49:33;29.20;;;26.40;;
2119;SDS011;1066;52.540;13.420;2022-07-21T06:51:58;34.07;;;30.70;;
2119;SDS011;1066;52.540;13.420;2022-07-21T06:54:24;21.77;;;19.77;;
2119;SDS011;1066;52.540;13.420;2022-07-21T06:56:49;29.90;;;27.00;;
2119;SDS011;1066;52.540;13.420;2022-07-21T06:59:14;28.63;;;25.73;;
2119;SDS011;1066;52.540;13.420;2022-07-21T07:01:39;30.03;;;27.23;;
2119;SDS011;1066;52.540;13.420;2022-07-21T07:04:05;32.40;;;29.20;;
2119;SDS011;1066;52.540;13.420;2022-07-21T07:06:30;27.20;;;24.50;;
2119;SDS011;1066;52.540;13.420;2022-07-21T07:08:55;28.37;;;25.50;;
2119;SDS011;1066;52.540;13.420;2022-07-21T07:11:20;29.13;;;26.20;;
2119;SDS011;1066;52.540;13.420;2022-07-21T07:13:46;25.20;;;22.63;;
2119;SDS011;1066;52.540;13.420;2022-07-21T07:16:11;26.80;;;24.30;;
2119;SDS011;1066;52.540;13.420;2022-07-21T07:18:36;24.17;;;21.67;;
2119;SDS011;1066;52.540;13.420;2022-07-21T07:21:03;26.40;;;24.00;;
2119;SDS011;1066;52.540;13.420;2022-07-21T07:23:28;22.43;;;20.17;;
2119;SDS011;1066;52.540;13.420;2022-07-21T07:25:53;24.80;;;22.40;;
2119;SDS011;1066;52.540;13.420;2022-07-21T07:28:18;26.40;;;23.90;;
2119;SDS011;1066;52.540;13.420;2022-07-21T07:30:44;22.50;;;20.60;;
2119;SDS011;1066;52.540;13.420;2022-07-21T07:33:09;22.27;;;20.23;;
2119;SDS011;1066;52.540;13.420;2022-07-21T07:35:34;25.67;;;22.23;;
2119;SDS011;1066;52.540;13.420;2022-07-21T07:38:00;19.67;;;17.60;;
2119;SDS011;1066;52.540;13.420;2022-07-21T07:40:26;23.00;;;20.70;;
2119;SDS011;1066;52.540;13.420;2022-07-21T07:42:51;19.83;;;17.73;;
2119;SDS011;1066;52.540;13.420;2022-07-21T07:45:17;18.80;;;17.10;;
2119;SDS011;1066;52.540;13.420;2022-07-21T07:47:42;20.20;;;18.40;;
2119;SDS011;1066;52.540;13.420;2022-07-21T07:50:09;19.57;;;17.67;;
2119;SDS011;1066;52.540;13.420;2022-07-21T07:52:36;19.47;;;17.40;;
2119;SDS011;1066;52.540;13.420;2022-07-21T07:55:01;26.37;;;23.57;;
2119;SDS011;1066;52.540;13.420;2022-07-21T07:57:29;24.67;;;22.13;;
2119;SDS011;1066;52.540;13.420;2022-07-21T07:59:55;32.43;;;29.20;;
2119;SDS011;1066;52.540;13.420;2022-07-21T08:02:20;26.37;;;23.67;;
2119;SDS011;1066;52.540;13.420;2022-07-21T08:04:45;30.33;;;27.23;;
2119;SDS011;1066;52.540;13.420;2022-07-21T08:07:10;26.43;;;23.87;;
2119;SDS011;1066;52.540;13.420;2022-07-21T08:09:36;30.73;;;27.80;;
2119;SDS011;1066;52.540;13.420;2022-07-21T08:12:01;23.07;;;20.67;;
2119;SDS011;1066;52.540;13.420;2022-07-21T08:14:26;27.70;;;25.13;;
2119;SDS011;1066;52.540;13.420;2022-07-21T08:16:51;19.77;;;18.03;;
2119;SDS011;1066;52.540;13.420;2022-07-21T08:19:16;19.13;;;17.43;;
2119;SDS011;1066;52.540;13.420;2022-07-21T08:21:42;18.73;;;16.97;;
2119;SDS011;1066;52.540;13.420;2022-07-21T08:24:07;19.37;;;17.63;;
2119;SDS011;1066;52.540;13.420;2022-07-21T08:26:33;22.90;;;20.43;;
2119;SDS011;1066;52.540;13.420;2022-07-21T08:28:58;27.73;;;24.93;;
2119;SDS011;1066;52.540;13.420;2022-07-21T08:31:24;23.07;;;20.90;;
2119;SDS011;1066;52.540;13.420;2022-07-21T08:33:49;21.53;;;19.40;;
2119;SDS011;1066;52.540;13.420;2022-07-21T08:36:15;19.37;;;17.77;;
2119;SDS011;1066;52.540;13.420;2022-07-21T08:38:40;20.67;;;18.53;;
2119;SDS011;1066;52.540;13.420;2022-07-21T08:41:05;21.07;;;19.30;;
2119;SDS011;1066;52.540;13.420;2022-07-21T08:43:33;17.93;;;16.33;;
2119;SDS011;1066;52.540;13.420;2022-07-21T08:45:58;20.87;;;18.77;;
2119;SDS011;1066;52.540;13.420;2022-07-21T08:48:24;17.47;;;15.83;;
2119;SDS011;1066;52.540;13.420;2022-07-21T08:50:50;21.27;;;19.10;;
2119;SDS011;1066;52.540;13.420;2022-07-21T08:53:15;21.00;;;18.77;;
2119;SDS011;1066;52.540;13.420;2022-07-21T08:55:40;18.03;;;16.23;;
2119;SDS011;1066;52.540;13.420;2022-07-21T08:58:07;18.50;;;16.60;;
2119;SDS011;1066;52.540;13.420;2022-07-21T09:00:32;17.27;;;15.53;;
2119;SDS011;1066;52.540;13.420;2022-07-21T09:03:10;27.37;;;24.77;;
2119;SDS011;1066;52.540;13.420;2022-07-21T09:05:36;16.33;;;14.70;;
2119;SDS011;1066;52.540;13.420;2022-07-21T09:08:01;17.33;;;15.90;;
2119;SDS011;1066;52.540;13.420;2022-07-21T09:10:27;15.53;;;14.13;;
2119;SDS011;1066;52.540;13.420;2022-07-21T09:12:56;18.10;;;16.50;;
2119;SDS011;1066;52.540;13.420;2022-07-21T09:15:23;13.30;;;12.10;;
2119;SDS011;1066;52.540;13.420;2022-07-21T09:20:29;13.77;;;12.43;;
2119;SDS011;1066;52.540;13.420;2022-07-21T09:23:04;12.93;;;11.60;;
2119;SDS011;1066;52.540;13.420;2022-07-21T09:25:36;13.47;;;12.17;;
2119;SDS011;1066;52.540;13.420;2022-07-21T09:28:12;14.70;;;13.30;;
2119;SDS011;1066;52.540;13.420;2022-07-21T09:38:29;13.53;;;12.43;;
2119;SDS011;1066;52.540;13.420;2022-07-21T09:40:55;12.47;;;11.07;;
2119;SDS011;1066;52.540;13.420;2022-07-21T09:43:55;13.93;;;12.57;;
2119;SDS011;1066;52.540;13.420;2022-07-21T09:46:25;13.20;;;12.10;;
2119;SDS011;1066;52.540;13.420;2022-07-21T09:48:53;13.60;;;12.27;;
2119;SDS011;1066;52.540;13.420;2022-07-21T09:51:23;12.97;;;11.67;;
2119;SDS011;1066;52.540;13.420;2022-07-21T09:54:01;10.83;;;9.93;;
2119;SDS011;1066;52.540;13.420;2022-07-21T09:56:28;10.93;;;9.97;;
2119;SDS011;1066;52.540;13.420;2022-07-21T09:58:54;12.03;;;10.90;;
2119;SDS011;1066;52.540;13.420;2022-07-21T10:01:20;10.83;;;9.87;;
2119;SDS011;1066;52.540;13.420;2022-07-21T10:03:46;11.27;;;10.27;;
2119;SDS011;1066;52.540;13.420;2022-07-21T10:06:12;10.50;;;9.50;;
2119;SDS011;1066;52.540;13.420;2022-07-21T10:08:38;7.63;;;6.93;;
2119;SDS011;1066;52.540;13.420;2022-07-21T10:11:04;9.37;;;8.43;;
2119;SDS011;1066;52.540;13.420;2022-07-21T10:13:30;9.23;;;8.47;;
2119;SDS011;1066;52.540;13.420;2022-07-21T10:15:55;8.13;;;7.37;;
2119;SDS011;1066;52.540;13.420;2022-07-21T10:18:22;9.43;;;8.60;;
2119;SDS011;1066;52.540;13.420;2022-07-21T10:20:55;10.40;;;9.50;;
2119;SDS011;1066;52.540;13.420;2022-07-21T10:23:28;9.23;;;8.33;;
2119;SDS011;1066;52.540;13.420;2022-07-21T10:25:58;8.77;;;8.07;;
2119;SDS011;1066;52.540;13.420;2022-07-21T10:28:24;8.37;;;7.60;;
2119;SDS011;1066;52.540;13.420;2022-07-21T10:30:53;9.30;;;8.40;;
2119;SDS011;1066;52.540;13.420;2022-07-21T10:34:07;10.97;;;9.83;;
2119;SDS011;1066;52.540;13.420;2022-07-21T10:36:07;9.73;;;8.90;;
2119;SDS011;1066;52.540;13.420;2022-07-21T10:38:33;11.43;;;8.10;;
2119;SDS011;1066;52.540;13.420;2022-07-21T10:40:59;9.63;;;8.70;;
2119;SDS011;1066;52.540;13.420;2022-07-21T10:45:50;8.27;;;7.57;;
2119;SDS011;1066;52.540;13.420;2022-07-21T10:51:00;9.60;;;8.67;;
2119;SDS011;1066;52.540;13.420;2022-07-21T10:53:27;9.10;;;8.23;;
2119;SDS011;1066;52.540;13.420;2022-07-21T10:55:53;9.63;;;7.80;;
2119;SDS011;1066;52.540;13.420;2022-07-21T10:58:26;9.83;;;8.50;;
2119;SDS011;1066;52.540;13.420;2022-07-21T11:00:58;10.33;;;8.17;;
2119;SDS011;1066;52.540;13.420;2022-07-21T11:03:25;9.10;;;8.30;;
2119;SDS011;1066;52.540;13.420;2022-07-21T11:08:38;7.67;;;6.97;;
2119;SDS011;1066;52.540;13.420;2022-07-21T11:11:08;8.70;;;7.90;;
2119;SDS011;1066;52.540;13.420;2022-07-21T11:16:19;8.40;;;7.60;;
2119;SDS011;1066;52.540;13.420;2022-07-21T11:18:44;10.50;;;7.57;;
2119;SDS011;1066;52.540;13.420;2022-07-21T11:21:13;8.30;;;7.10;;
2119;SDS011;1066;52.540;13.420;2022-07-21T11:23:40;7.60;;;6.70;;
2119;SDS011;1066;52.540;13.420;2022-07-21T11:26:05;7.83;;;6.90;;
2119;SDS011;1066;52.540;13.420;2022-07-21T11:28:31;7.57;;;6.67;;
2119;SDS011;1066;52.540;13.420;2022-07-21T11:31:06;8.53;;;7.53;;
2119;SDS011;1066;52.540;13.420;2022-07-21T11:33:31;7.87;;;7.17;;
2119;SDS011;1066;52.540;13.420;2022-07-21T11:35:56;10.70;;;7.60;;
2119;SDS011;1066;52.540;13.420;2022-07-21T11:38:22;7.70;;;6.70;;
2119;SDS011;1066;52.540;13.420;2022-07-21T11:40:47;7.00;;;6.40;;
2119;SDS011;1066;52.540;13.420;2022-07-21T11:43:12;7.57;;;6.70;;
2119;SDS011;1066;52.540;13.420;2022-07-21T11:45:37;7.23;;;6.57;;
2119;SDS011;1066;52.540;13.420;2022-07-21T11:48:02;7.30;;;6.60;;
2119;SDS011;1066;52.540;13.420;2022-07-21T11:50:28;7.80;;;7.20;;
2119;SDS011;1066;52.540;13.420;2022-07-21T11:52:55;7.30;;;6.80;;
2119;SDS011;1066;52.540;13.420;2022-07-21T11:55:21;10.10;;;8.10;;
2119;SDS011;1066;52.540;13.420;2022-07-21T11:57:46;8.80;;;7.07;;
2119;SDS011;1066;52.540;13.420;2022-07-21T12:00:12;8.00;;;7.30;;
2119;SDS011;1066;52.540;13.420;2022-07-21T12:02:37;7.63;;;6.93;;
2119;SDS011;1066;52.540;13.420;2022-07-21T12:05:03;7.93;;;7.10;;
2119;SDS011;1066;52.540;13.420;2022-07-21T12:07:33;8.90;;;7.17;;
2119;SDS011;1066;52.540;13.420;2022-07-21T12:10:00;8.67;;;7.60;;
2119;SDS011;1066;52.540;13.420;2022-07-21T12:12:33;8.53;;;7.73;;
2119;SDS011;1066;52.540;13.420;2022-07-21T12:15:08;8.77;;;7.07;;
2119;SDS011;1066;52.540;13.420;2022-07-21T12:17:40;7.33;;;6.63;;
2119;SDS011;1066;52.540;13.420;2022-07-21T12:20:05;7.77;;;6.97;;
2119;SDS011;1066;52.540;13.420;2022-07-21T12:22:41;8.37;;;7.30;;
2119;SDS011;1066;52.540;13.420;2022-07-21T12:25:11;8.10;;;7.30;;
2119;SDS011;1066;52.540;13.420;2022-07-21T12:27:37;7.53;;;6.77;;
2119;SDS011;1066;52.540;13.420;2022-07-21T12:30:04;8.37;;;7.63;;
2119;SDS011;1066;52.540;13.420;2022-07-21T12:32:43;8.07;;;7.27;;
2119;SDS011;1066;52.540;13.420;2022-07-21T12:35:16;10.20;;;7.60;;
2119;SDS011;1066;52.540;13.420;2022-07-21T12:37:58;7.83;;;6.80;;
2119;SDS011;1066;52.540;13.420;2022-07-21T12:40:23;10.00;;;7.40;;
2119;SDS011;1066;52.540;13.420;2022-07-21T12:42:50;8.10;;;7.40;;
2119;SDS011;1066;52.540;13.420;2022-07-21T12:45:16;7.60;;;7.00;;
2119;SDS011;1066;52.540;13.420;2022-07-21T12:47:42;7.60;;;6.90;;
2119;SDS011;1066;52.540;13.420;2022-07-21T12:50:08;7.87;;;7.27;;
2119;SDS011;1066;52.540;13.420;2022-07-21T12:52:34;8.00;;;7.17;;
2119;SDS011;1066;52.540;13.420;2022-07-21T12:55:00;11.33;;;7.00;;
2119;SDS011;1066;52.540;13.420;2022-07-21T12:57:29;8.20;;;7.40;;
2119;SDS011;1066;52.540;13.420;2022-07-21T12:59:55;7.63;;;6.93;;
2119;SDS011;1066;52.540;13.420;2022-07-21T13:02:21;8.20;;;7.50;;
2119;SDS011;1066;52.540;13.420;2022-07-21T13:04:46;8.23;;;7.50;;
2119;SDS011;1066;52.540;13.420;2022-07-21T13:07:11;7.90;;;7.10;;
2119;SDS011;1066;52.540;13.420;2022-07-21T13:09:36;7.50;;;6.90;;
2119;SDS011;1066;52.540;13.420;2022-07-21T13:12:02;8.13;;;6.30;;
2119;SDS011;1066;52.540;13.420;2022-07-21T13:14:27;8.93;;;8.03;;
2119;SDS011;1066;52.540;13.420;2022-07-21T13:16:52;8.70;;;7.80;;
2119;SDS011;1066;52.540;13.420;2022-07-21T13:19:18;7.47;;;6.77;;
2119;SDS011;1066;52.540;13.420;2022-07-21T13:21:43;7.93;;;7.17;;
2119;SDS011;1066;52.540;13.420;2022-07-21T13:24:09;8.37;;;7.57;;
2119;SDS011;1066;52.540;13.420;2022-07-21T13:26:34;7.23;;;6.63;;
2119;SDS011;1066;52.540;13.420;2022-07-21T13:28:59;9.00;;;6.77;;
2119;SDS011;1066;52.540;13.420;2022-07-21T13:31:27;7.23;;;6.63;;
2119;SDS011;1066;52.540;13.420;2022-07-21T13:33:52;7.87;;;6.30;;
2119;SDS011;1066;52.540;13.420;2022-07-21T13:36:17;7.80;;;7.00;;
2119;SDS011;1066;52.540;13.420;2022-07-21T13:38:42;8.43;;;7.73;;
2119;SDS011;1066;52.540;13.420;2022-07-21T13:41:08;8.80;;;7.87;;
2119;SDS011;1066;52.540;13.420;2022-07-21T13:43:35;8.07;;;7.40;;
2119;SDS011;1066;52.540;13.420;2022-07-21T13:46:00;7.10;;;6.60;;
2119;SDS011;1066;52.540;13.420;2022-07-21T13:48:25;8.50;;;7.77;;
2119;SDS011;1066;52.540;13.420;2022-07-21T13:50:50;7.40;;;6.80;;
2119;SDS011;1066;52.540;13.420;2022-07-21T13:53:16;8.20;;;7.50;;
2119;SDS011;1066;52.540;13.420;2022-07-21T13:55:41;11.70;;;8.13;;
2119;SDS011;1066;52.540;13.420;2022-07-21T13:58:06;6.90;;;6.30;;
2119;SDS011;1066;52.540;13.420;2022-07-21T14:00:33;7.30;;;6.60;;
2119;SDS011;1066;52.540;13.420;2022-07-21T14:02:58;7.77;;;6.97;;
2119;SDS011;1066;52.540;13.420;2022-07-21T14:05:23;8.60;;;7.10;;
2119;SDS011;1066;52.540;13.420;2022-07-21T14:07:49;7.00;;;6.40;;
2119;SDS011;1066;52.540;13.420;2022-07-21T14:10:14;6.73;;;6.13;;
2119;SDS011;1066;52.540;13.420;2022-07-21T14:12:39;7.33;;;6.73;;
2119;SDS011;1066;52.540;13.420;2022-07-21T14:15:04;8.33;;;6.90;;
2119;SDS011;1066;52.540;13.420;2022-07-21T14:17:30;7.00;;;6.40;;
2119;SDS011;1066;52.540;13.420;2022-07-21T14:19:55;6.90;;;6.10;;
2119;SDS011;1066;52.540;13.420;2022-07-21T14:22:20;5.87;;;5.47;;
2119;SDS011;1066;52.540;13.420;2022-07-21T14:24:47;5.80;;;5.20;;
2119;SDS011;1066;52.540;13.420;2022-07-21T14:27:31;7.60;;;6.90;;
2119;SDS011;1066;52.540;13.420;2022-07-21T14:29:56;8.63;;;7.30;;
2119;SDS011;1066;52.540;13.420;2022-07-21T14:32:21;6.40;;;5.80;;
2119;SDS011;1066;52.540;13.420;2022-07-21T14:34:51;6.10;;;5.60;;
2119;SDS011;1066;52.540;13.420;2022-07-21T14:37:16;6.00;;;5.50;;
2119;SDS011;1066;52.540;13.420;2022-07-21T14:39:43;5.97;;;5.47;;
2119;SDS011;1066;52.540;13.420;2022-07-21T14:42:08;6.60;;;6.10;;
2119;SDS011;1066;52.540;13.420;2022-07-21T14:44:34;6.20;;;5.70;;
2119;SDS011;1066;52.540;13.420;2022-07-21T14:46:59;6.00;;;5.50;;
2119;SDS011;1066;52.540;13.420;2022-07-21T14:49:25;6.60;;;6.10;;
2119;SDS011;1066;52.540;13.420;2022-07-21T14:51:50;6.53;;;6.03;;
2119;SDS011;1066;52.540;13.420;2022-07-21T14:54:15;6.80;;;6.30;;
2119;SDS011;1066;52.540;13.420;2022-07-21T14:56:40;6.83;;;6.33;;
2119;SDS011;1066;52.540;13.420;2022-07-21T14:59:05;6.77;;;6.27;;
2119;SDS011;1066;52.540;13.420;2022-07-21T15:01:31;7.70;;;7.00;;
2119;SDS011;1066;52.540;13.420;2022-07-21T15:03:56;7.17;;;6.47;;
2119;SDS011;1066;52.540;13.420;2022-07-21T15:06:21;6.90;;;6.40;;